高雄國際航空站 - 塔台/地面席

METAR RCKH 212100Z 07003KT 9999 FEW014 BKN040 BKN090 27/24 Q1000 NOSIG RMK A2954(P)=

站台狀態:Online
最後更新:2018-07-22 05:00:03